createdAt,value
2022-12-18T00:00:06.562Z,0.00
2022-12-18T00:01:06.855Z,0.00
2022-12-18T00:02:07.229Z,0.00
2022-12-18T00:03:07.552Z,0.00
2022-12-18T00:04:07.843Z,0.00
2022-12-18T00:05:08.039Z,0.00
2022-12-18T00:06:08.385Z,0.00
2022-12-18T00:07:08.703Z,0.00
2022-12-18T00:08:09.226Z,0.00
2022-12-18T00:09:09.297Z,0.00
2022-12-18T00:10:09.547Z,0.00
2022-12-18T00:11:09.856Z,0.00
2022-12-18T00:13:11.493Z,0.00
2022-12-18T00:14:10.716Z,0.00
2022-12-18T00:15:11.046Z,0.00
2022-12-18T00:16:11.486Z,0.00
2022-12-18T00:17:11.686Z,0.00
2022-12-18T00:18:13.838Z,0.00
2022-12-18T00:19:12.292Z,0.00
2022-12-18T00:20:12.592Z,0.00
2022-12-18T00:21:12.857Z,0.00
2022-12-18T00:22:13.173Z,0.00
2022-12-18T00:23:13.544Z,0.00
2022-12-18T00:24:13.794Z,0.00
2022-12-18T00:25:14.115Z,0.00
2022-12-18T00:26:14.476Z,0.00
2022-12-18T00:27:14.745Z,0.00
2022-12-18T00:28:15.082Z,0.00
2022-12-18T00:29:15.371Z,0.00
2022-12-18T00:30:15.676Z,0.00
2022-12-18T00:31:16.042Z,0.00
2022-12-18T00:32:16.264Z,0.00
2022-12-18T00:33:16.571Z,0.00
2022-12-18T00:34:16.832Z,0.00
2022-12-18T00:35:17.175Z,0.00
2022-12-18T00:36:17.469Z,0.00
2022-12-18T00:37:20.252Z,0.00
2022-12-18T00:38:17.954Z,0.00
2022-12-18T00:39:18.285Z,0.00
2022-12-18T00:40:18.591Z,0.00
2022-12-18T00:41:18.898Z,0.00
2022-12-18T00:42:19.186Z,0.00
2022-12-18T00:43:19.486Z,0.00
2022-12-18T00:44:19.958Z,0.00
2022-12-18T00:45:20.110Z,0.00
2022-12-18T00:46:20.423Z,0.00
2022-12-18T00:47:20.749Z,0.00
2022-12-18T00:48:21.009Z,0.00
2022-12-18T00:49:21.328Z,0.00
2022-12-18T00:50:21.660Z,0.00
2022-12-18T00:51:21.992Z,0.00
2022-12-18T00:52:22.343Z,0.00
2022-12-18T00:53:22.633Z,0.00
2022-12-18T00:54:22.912Z,0.00
2022-12-18T00:55:23.249Z,0.00
2022-12-18T00:56:23.542Z,0.00
2022-12-18T00:57:23.870Z,0.00
2022-12-18T00:58:24.142Z,0.00
2022-12-18T00:59:24.469Z,0.00
2022-12-18T01:00:24.801Z,0.00
2022-12-18T01:01:25.246Z,0.00
2022-12-18T01:02:25.587Z,0.00
2022-12-18T01:03:25.780Z,0.00
2022-12-18T01:04:26.043Z,0.00
2022-12-18T01:05:26.364Z,0.00
2022-12-18T01:06:26.722Z,0.00
2022-12-18T01:07:27.023Z,0.00
2022-12-18T01:08:27.322Z,0.00
2022-12-18T01:09:27.610Z,0.00
2022-12-18T01:10:27.938Z,0.00
2022-12-18T01:11:28.242Z,0.00
2022-12-18T01:12:28.609Z,0.00
2022-12-18T01:13:28.882Z,0.00
2022-12-18T01:14:29.202Z,0.00
2022-12-18T01:15:29.538Z,0.00
2022-12-18T01:16:29.892Z,0.00
2022-12-18T01:17:30.210Z,0.00
2022-12-18T01:18:30.481Z,0.00
2022-12-18T01:19:30.818Z,0.00
2022-12-18T01:20:31.081Z,0.00
2022-12-18T01:21:31.420Z,0.00
2022-12-18T01:22:31.709Z,0.00
2022-12-18T01:23:31.972Z,0.00
2022-12-18T01:24:32.283Z,0.00
2022-12-18T01:25:32.611Z,0.00
2022-12-18T01:26:32.912Z,0.00
2022-12-18T01:27:33.250Z,0.00
2022-12-18T01:28:33.559Z,0.00
2022-12-18T01:29:33.889Z,0.00
2022-12-18T01:30:34.191Z,0.00
2022-12-18T01:31:34.595Z,0.00
2022-12-18T01:32:34.830Z,0.00
2022-12-18T01:33:35.165Z,0.00
2022-12-18T01:34:35.301Z,0.00
2022-12-18T01:35:35.537Z,0.00
2022-12-18T01:36:35.808Z,0.00
2022-12-18T01:37:36.168Z,0.00
2022-12-18T01:38:36.431Z,0.00
2022-12-18T01:39:36.745Z,0.00
2022-12-18T01:40:37.074Z,0.00
2022-12-18T01:41:37.407Z,0.00
2022-12-18T01:42:37.726Z,0.00
2022-12-18T01:43:38.295Z,0.00
2022-12-18T01:44:38.301Z,0.00
2022-12-18T01:45:38.638Z,0.00
2022-12-18T01:46:38.986Z,0.00
2022-12-18T01:47:39.258Z,0.00
2022-12-18T01:48:39.606Z,0.00
2022-12-18T01:49:39.829Z,0.00
2022-12-18T01:50:40.196Z,0.00
2022-12-18T01:51:40.479Z,0.00
2022-12-18T01:52:40.844Z,0.00
2022-12-18T01:53:41.372Z,0.00
2022-12-18T01:54:41.425Z,0.00
2022-12-18T01:55:41.746Z,0.00
2022-12-18T01:56:42.045Z,0.00
2022-12-18T01:57:42.359Z,0.00
2022-12-18T01:58:42.628Z,0.00
2022-12-18T01:59:42.952Z,0.00
2022-12-18T02:00:43.349Z,0.00
2022-12-18T02:01:43.576Z,0.00
2022-12-18T02:02:43.939Z,0.00
2022-12-18T02:03:44.086Z,0.00
2022-12-18T02:04:49.396Z,0.00
2022-12-18T02:05:45.678Z,0.00
2022-12-18T02:06:45.048Z,0.00
2022-12-18T02:07:45.336Z,0.00
2022-12-18T02:08:45.600Z,0.00
2022-12-18T02:09:45.946Z,0.00
2022-12-18T02:10:46.244Z,0.00
2022-12-18T02:11:46.526Z,0.00
2022-12-18T02:12:46.895Z,0.00
2022-12-18T02:13:47.148Z,0.00
2022-12-18T02:14:47.480Z,0.00
2022-12-18T02:15:47.815Z,0.00
2022-12-18T02:16:48.204Z,0.00
2022-12-18T02:17:48.434Z,0.00
2022-12-18T02:18:48.734Z,0.00
2022-12-18T02:19:49.041Z,0.00
2022-12-18T02:20:49.334Z,0.00
2022-12-18T02:21:49.616Z,0.00
2022-12-18T02:22:49.924Z,0.00
2022-12-18T02:23:50.178Z,0.00
2022-12-18T02:24:50.515Z,0.00
2022-12-18T02:25:50.827Z,0.00
2022-12-18T02:26:51.168Z,0.00
2022-12-18T02:27:51.519Z,0.00
2022-12-18T02:28:51.778Z,0.00
2022-12-18T02:29:57.856Z,0.00
2022-12-18T02:30:53.434Z,0.00
2022-12-18T02:31:52.636Z,0.00
2022-12-18T02:32:52.957Z,0.00
2022-12-18T02:33:53.217Z,0.00
2022-12-18T02:34:53.543Z,0.00
2022-12-18T02:35:53.890Z,0.00
2022-12-18T02:36:54.192Z,0.00
2022-12-18T02:37:54.493Z,0.00
2022-12-18T02:38:54.773Z,0.00
2022-12-18T02:39:55.036Z,0.00
2022-12-18T02:40:55.362Z,0.00
2022-12-18T02:41:55.714Z,0.00
2022-12-18T02:42:55.988Z,0.00
2022-12-18T02:43:56.282Z,0.00
2022-12-18T02:44:56.603Z,0.00
2022-12-18T02:45:56.946Z,0.00
2022-12-18T02:46:57.128Z,0.00
2022-12-18T02:47:57.464Z,0.00
2022-12-18T02:48:57.761Z,0.00
2022-12-18T02:49:58.048Z,0.00
2022-12-18T02:50:58.381Z,0.00
2022-12-18T02:51:58.652Z,0.00
2022-12-18T02:52:58.985Z,0.00
2022-12-18T02:53:59.245Z,0.00
2022-12-18T02:54:59.570Z,0.00
2022-12-18T02:55:59.919Z,0.00
2022-12-18T02:57:00.180Z,0.00
2022-12-18T02:58:00.544Z,0.00
2022-12-18T02:59:00.840Z,0.00
2022-12-18T03:00:01.146Z,0.00
2022-12-18T03:01:01.543Z,0.00
2022-12-18T03:02:02.022Z,0.00
2022-12-18T03:03:02.179Z,0.00
2022-12-18T03:04:02.400Z,0.00
2022-12-18T03:05:02.679Z,0.00
2022-12-18T03:06:03.001Z,0.00
2022-12-18T03:07:03.353Z,0.00
2022-12-18T03:08:03.624Z,0.00
2022-12-18T03:09:03.961Z,0.00
2022-12-18T03:10:04.232Z,0.00
2022-12-18T03:11:04.573Z,0.00
2022-12-18T03:12:04.889Z,0.00
2022-12-18T03:13:05.230Z,0.00
2022-12-18T03:14:05.492Z,0.00
2022-12-18T03:15:05.833Z,0.00
2022-12-18T03:16:06.171Z,0.00
2022-12-18T03:17:06.489Z,0.00
2022-12-18T03:18:06.818Z,0.00
2022-12-18T03:19:07.099Z,0.00
2022-12-18T03:20:07.439Z,0.00
2022-12-18T03:21:07.726Z,0.00
2022-12-18T03:22:08.049Z,0.00
2022-12-18T03:23:08.362Z,0.00
2022-12-18T03:24:08.672Z,0.00
2022-12-18T03:25:08.991Z,0.00
2022-12-18T03:26:09.289Z,0.00
2022-12-18T03:27:09.551Z,0.00
2022-12-18T03:28:09.908Z,0.00
2022-12-18T03:29:10.199Z,0.00
2022-12-18T03:30:10.502Z,0.00
2022-12-18T03:31:10.885Z,0.00
2022-12-18T03:32:11.201Z,0.00
2022-12-18T03:33:11.481Z,0.00
2022-12-18T03:34:11.763Z,0.00
2022-12-18T03:35:12.109Z,0.00
2022-12-18T03:36:12.388Z,0.00
2022-12-18T03:37:12.748Z,0.00
2022-12-18T03:38:13.037Z,0.00
2022-12-18T03:39:13.302Z,0.00
2022-12-18T03:40:13.600Z,0.00
2022-12-18T03:41:13.977Z,0.00
2022-12-18T03:42:14.287Z,0.00
2022-12-18T03:43:14.579Z,0.00
2022-12-18T03:44:14.853Z,0.00
2022-12-18T03:45:15.179Z,0.00
2022-12-18T03:46:15.542Z,0.00
2022-12-18T03:47:15.832Z,0.00
2022-12-18T03:48:16.178Z,0.00
2022-12-18T03:49:16.431Z,0.00
2022-12-18T03:50:16.740Z,0.00
2022-12-18T03:51:17.076Z,0.00
2022-12-18T03:52:17.369Z,0.00
2022-12-18T03:53:17.681Z,0.00
2022-12-18T03:54:18.055Z,0.00
2022-12-18T03:55:18.311Z,0.00
2022-12-18T03:56:18.648Z,0.00
2022-12-18T03:57:18.980Z,0.00
2022-12-18T03:58:19.335Z,0.00
2022-12-18T03:59:19.608Z,0.00
2022-12-18T04:00:19.928Z,0.00
2022-12-18T04:01:20.363Z,0.00
2022-12-18T04:02:20.682Z,0.00
2022-12-18T04:03:25.477Z,0.00
2022-12-18T04:04:22.142Z,0.00
2022-12-18T04:05:21.497Z,0.00
2022-12-18T04:06:21.802Z,0.00
2022-12-18T04:07:22.121Z,0.00
2022-12-18T04:08:22.467Z,0.00
2022-12-18T04:09:22.799Z,0.00
2022-12-18T04:10:23.085Z,0.00
2022-12-18T04:11:23.419Z,0.00
2022-12-18T04:12:23.722Z,0.00
2022-12-18T04:13:24.071Z,0.00
2022-12-18T04:14:24.348Z,0.00
2022-12-18T04:15:24.717Z,0.00
2022-12-18T04:16:24.908Z,0.00
2022-12-18T04:17:25.237Z,0.00
2022-12-18T04:18:25.599Z,0.00
2022-12-18T04:19:25.780Z,0.00
2022-12-18T04:20:26.115Z,0.00
2022-12-18T04:21:26.415Z,0.00
2022-12-18T04:22:26.693Z,0.00
2022-12-18T04:23:27.023Z,0.00
2022-12-18T04:24:27.288Z,0.00
2022-12-18T04:25:27.608Z,0.00
2022-12-18T04:26:27.944Z,0.00
2022-12-18T04:27:28.234Z,0.00
2022-12-18T04:28:28.546Z,0.00
2022-12-18T04:29:28.808Z,0.00
2022-12-18T04:30:29.144Z,0.00
2022-12-18T04:31:29.520Z,0.00
2022-12-18T04:32:29.824Z,0.00
2022-12-18T04:33:30.117Z,0.00
2022-12-18T04:34:30.413Z,0.00
2022-12-18T04:35:30.717Z,0.00
2022-12-18T04:36:31.018Z,0.00
2022-12-18T04:37:31.353Z,0.00
2022-12-18T04:38:31.716Z,0.00
2022-12-18T04:39:32.003Z,0.00
2022-12-18T04:40:32.329Z,0.00
2022-12-18T04:41:32.659Z,0.00
2022-12-18T04:42:32.993Z,0.00
2022-12-18T04:43:33.276Z,0.00
2022-12-18T04:44:33.584Z,0.00
2022-12-18T04:45:33.873Z,0.00
2022-12-18T04:46:34.189Z,0.00
2022-12-18T04:47:34.520Z,0.00
2022-12-18T04:48:41.827Z,0.00
2022-12-18T04:49:35.113Z,0.00
2022-12-18T04:50:35.385Z,0.00
2022-12-18T04:51:35.702Z,0.00
2022-12-18T04:52:35.997Z,0.00
2022-12-18T04:53:36.525Z,0.00
2022-12-18T04:54:36.655Z,0.00
2022-12-18T04:55:36.976Z,0.00
2022-12-18T04:56:37.226Z,0.00
2022-12-18T04:57:37.576Z,0.00
2022-12-18T04:58:37.846Z,0.00
2022-12-18T04:59:38.191Z,0.00
2022-12-18T05:00:38.483Z,0.00
2022-12-18T05:01:38.862Z,0.00
2022-12-18T05:02:39.139Z,0.00
2022-12-18T05:03:39.868Z,0.00
2022-12-18T05:04:39.546Z,0.00
2022-12-18T05:05:39.838Z,0.00
2022-12-18T05:06:40.142Z,0.00
2022-12-18T05:07:40.415Z,0.00
2022-12-18T05:08:40.669Z,0.00
2022-12-18T05:09:41.052Z,0.00
2022-12-18T05:10:41.321Z,0.00
2022-12-18T05:11:41.641Z,0.00
2022-12-18T05:12:41.906Z,0.00
2022-12-18T05:13:42.557Z,0.00
2022-12-18T05:14:42.485Z,0.00
2022-12-18T05:15:42.917Z,0.00
2022-12-18T05:16:43.102Z,0.00
2022-12-18T05:17:43.371Z,0.00
2022-12-18T05:18:51.241Z,0.00
2022-12-18T05:19:44.087Z,0.00
2022-12-18T05:20:44.388Z,0.00
2022-12-18T05:21:44.708Z,0.00
2022-12-18T05:22:44.954Z,0.00
2022-12-18T05:23:45.272Z,0.00
2022-12-18T05:24:45.630Z,0.00
2022-12-18T05:25:45.950Z,0.00
2022-12-18T05:26:46.232Z,0.00
2022-12-18T05:27:46.531Z,0.00
2022-12-18T05:28:46.837Z,0.00
2022-12-18T05:29:47.152Z,0.00
2022-12-18T05:30:47.459Z,0.00
2022-12-18T05:31:54.833Z,0.00
2022-12-18T05:32:47.959Z,0.00
2022-12-18T05:33:48.290Z,0.00
2022-12-18T05:34:48.656Z,0.00
2022-12-18T05:35:48.956Z,0.00
2022-12-18T05:36:49.223Z,0.00
2022-12-18T05:37:49.574Z,0.00
2022-12-18T05:38:49.867Z,0.00
2022-12-18T05:39:50.168Z,0.00
2022-12-18T05:40:50.476Z,0.00
2022-12-18T05:41:50.787Z,0.00
2022-12-18T05:42:51.095Z,0.00
2022-12-18T05:43:51.359Z,0.00
2022-12-18T05:44:51.706Z,0.00
2022-12-18T05:45:51.997Z,0.00
2022-12-18T05:46:59.397Z,0.00
2022-12-18T05:47:52.565Z,0.00
2022-12-18T05:48:52.868Z,0.00
2022-12-18T05:51:19.361Z,0.00
2022-12-18T05:52:19.641Z,0.00
2022-12-18T05:53:19.981Z,0.00
2022-12-18T05:54:20.290Z,0.00
2022-12-18T05:55:20.589Z,0.00
2022-12-18T05:56:20.865Z,0.00
2022-12-18T05:57:21.183Z,0.00
2022-12-18T05:58:21.492Z,0.00
2022-12-18T05:59:21.822Z,0.00
2022-12-18T06:00:22.123Z,0.00
2022-12-18T06:01:22.528Z,0.00
2022-12-18T06:02:22.850Z,0.00
2022-12-18T06:03:22.999Z,0.00
2022-12-18T06:04:30.300Z,0.00
2022-12-18T06:05:23.590Z,0.00
2022-12-18T06:06:23.921Z,0.00
2022-12-18T06:07:24.218Z,0.00
2022-12-18T06:08:24.491Z,0.00
2022-12-18T06:09:24.849Z,0.00
2022-12-18T06:10:25.139Z,0.00
2022-12-18T06:11:25.450Z,0.00
2022-12-18T06:12:25.672Z,0.00
2022-12-18T06:13:25.991Z,0.00
2022-12-18T06:14:26.321Z,0.00
2022-12-18T06:15:26.768Z,0.00
2022-12-18T06:16:27.102Z,0.00
2022-12-18T06:17:27.162Z,0.00
2022-12-18T06:18:27.508Z,0.00
2022-12-18T06:19:27.807Z,0.00
2022-12-18T06:20:33.254Z,0.00
2022-12-18T06:21:29.363Z,0.00
2022-12-18T06:22:28.728Z,0.00
2022-12-18T06:23:28.992Z,0.00
2022-12-18T06:24:29.301Z,0.00
2022-12-18T06:25:29.659Z,0.00
2022-12-18T06:26:29.940Z,0.00
2022-12-18T06:27:30.221Z,0.00
2022-12-18T06:28:30.582Z,0.00
2022-12-18T06:29:30.855Z,0.00
2022-12-18T06:30:31.178Z,0.00
2022-12-18T06:31:31.591Z,0.00
2022-12-18T06:32:31.730Z,0.00
2022-12-18T06:33:32.052Z,0.00
2022-12-18T06:34:32.350Z,0.00
2022-12-18T06:35:32.676Z,0.00
2022-12-18T06:36:33.002Z,0.00
2022-12-18T06:37:33.279Z,0.00
2022-12-18T06:38:33.638Z,0.00
2022-12-18T06:39:33.890Z,0.00
2022-12-18T06:40:34.236Z,0.00
2022-12-18T06:41:34.546Z,0.00
2022-12-18T06:42:34.817Z,0.00
2022-12-18T06:43:35.151Z,0.00
2022-12-18T06:44:35.471Z,0.00
2022-12-18T06:45:35.855Z,0.00
2022-12-18T06:46:36.049Z,0.00
2022-12-18T06:47:36.322Z,0.00
2022-12-18T06:48:36.658Z,4.00
2022-12-18T06:49:36.986Z,4.00
2022-12-18T06:50:37.265Z,0.00
2022-12-18T06:51:37.579Z,0.00
2022-12-18T06:52:37.893Z,4.00
2022-12-18T06:53:38.579Z,0.00
2022-12-18T06:54:38.465Z,4.00
2022-12-18T06:55:38.766Z,4.00
2022-12-18T06:56:39.030Z,4.00
2022-12-18T06:57:39.325Z,4.00
2022-12-18T06:58:39.641Z,4.00
2022-12-18T06:59:39.948Z,8.00
2022-12-18T07:00:40.322Z,4.00
2022-12-18T07:01:40.851Z,8.00
2022-12-18T07:02:41.028Z,8.00
2022-12-18T07:03:41.755Z,8.00
2022-12-18T07:04:41.538Z,8.00
2022-12-18T07:05:41.829Z,12.00
2022-12-18T07:06:42.203Z,16.00
2022-12-18T07:07:42.518Z,16.00
2022-12-18T07:08:42.808Z,20.00
2022-12-18T07:09:43.154Z,20.00
2022-12-18T07:10:47.411Z,24.00
2022-12-18T07:11:43.798Z,28.00
2022-12-18T07:12:44.088Z,32.00
2022-12-18T07:13:44.434Z,36.00
2022-12-18T07:14:44.751Z,44.00
2022-12-18T07:15:45.196Z,44.00
2022-12-18T07:16:45.381Z,48.00
2022-12-18T07:17:45.577Z,56.00
2022-12-18T07:18:45.907Z,64.00
2022-12-18T07:19:46.250Z,72.00
2022-12-18T07:20:46.613Z,80.00
2022-12-18T07:21:46.878Z,88.00
2022-12-18T07:22:50.792Z,100.00
2022-12-18T07:23:48.526Z,108.00
2022-12-18T07:24:47.750Z,116.00
2022-12-18T07:25:48.103Z,128.00
2022-12-18T07:26:48.396Z,140.00
2022-12-18T07:27:48.633Z,148.00
2022-12-18T07:28:48.820Z,160.00
2022-12-18T07:29:49.047Z,172.00
2022-12-18T07:30:49.356Z,184.00
2022-12-18T07:31:49.874Z,200.00
2022-12-18T07:32:49.973Z,212.00
2022-12-18T07:33:50.313Z,228.00
2022-12-18T07:34:50.515Z,248.00
2022-12-18T07:35:50.773Z,268.00
2022-12-18T07:36:51.093Z,284.00
2022-12-18T07:37:51.388Z,296.00
2022-12-18T07:38:51.743Z,316.00
2022-12-18T07:39:52.024Z,332.00
2022-12-18T07:40:52.209Z,352.00
2022-12-18T07:41:52.465Z,376.00
2022-12-18T07:42:52.747Z,396.00
2022-12-18T07:43:53.107Z,416.00
2022-12-18T07:44:53.404Z,440.00
2022-12-18T07:45:53.625Z,460.00
2022-12-18T07:46:53.971Z,476.00
2022-12-18T07:47:54.194Z,488.00
2022-12-18T07:48:54.494Z,508.00
2022-12-18T07:49:54.744Z,540.00
2022-12-18T07:50:55.074Z,576.00
2022-12-18T07:51:55.376Z,604.00
2022-12-18T07:52:55.596Z,628.00
2022-12-18T07:53:55.924Z,652.00
2022-12-18T07:54:56.312Z,676.00
2022-12-18T07:56:25.646Z,704.00
2022-12-18T07:56:57.924Z,724.00
2022-12-18T07:58:00.973Z,748.00
2022-12-18T07:58:57.528Z,764.00
2022-12-18T07:59:57.855Z,780.00
2022-12-18T08:00:58.173Z,820.00
2022-12-18T08:01:58.664Z,860.00
2022-12-18T08:02:58.979Z,884.00
2022-12-18T08:03:59.337Z,908.00
2022-12-18T08:04:59.391Z,932.00
2022-12-18T08:05:59.721Z,956.00
2022-12-18T08:07:00.035Z,984.00
2022-12-18T08:08:00.266Z,1016.00
2022-12-18T08:09:00.507Z,1052.00
2022-12-18T08:10:00.821Z,1072.00
2022-12-18T08:11:01.054Z,1096.00
2022-12-18T08:12:03.823Z,1112.00
2022-12-18T08:13:05.106Z,1128.00
2022-12-18T08:14:01.893Z,1140.00
2022-12-18T08:15:02.175Z,1160.00
2022-12-18T08:16:02.553Z,1184.00
2022-12-18T08:17:02.706Z,1204.00
2022-12-18T08:18:02.908Z,1240.00
2022-12-18T08:19:03.239Z,1300.00
2022-12-18T08:20:03.566Z,1344.00
2022-12-18T08:21:03.834Z,1376.00
2022-12-18T08:22:04.222Z,1412.00
2022-12-18T08:23:04.444Z,1432.00
2022-12-18T08:24:04.790Z,1460.00
2022-12-18T08:25:05.147Z,1504.00
2022-12-18T08:26:05.363Z,1548.00
2022-12-18T08:27:29.308Z,1576.00
2022-12-18T08:28:06.932Z,1588.00
2022-12-18T08:29:06.237Z,1600.00
2022-12-18T08:30:06.471Z,1648.00
2022-12-18T08:31:06.768Z,1744.00
2022-12-18T08:32:07.047Z,1792.00
2022-12-18T08:33:07.362Z,1716.00
2022-12-18T08:34:07.597Z,1712.00
2022-12-18T08:35:07.794Z,1676.00
2022-12-18T08:36:08.058Z,1652.00
2022-12-18T08:37:08.413Z,1664.00
2022-12-18T08:38:08.602Z,1704.00
2022-12-18T08:39:08.859Z,1740.00
2022-12-18T08:40:09.094Z,1736.00
2022-12-18T08:41:09.389Z,1736.00
2022-12-18T08:42:10.453Z,1724.00
2022-12-18T08:43:09.939Z,1736.00
2022-12-18T08:44:10.274Z,1744.00
2022-12-18T08:45:10.588Z,1780.00
2022-12-18T08:46:10.846Z,1824.00
2022-12-18T08:47:11.083Z,1844.00
2022-12-18T08:48:11.451Z,1936.00
2022-12-18T08:49:11.658Z,2028.00
2022-12-18T08:50:11.919Z,2164.00
2022-12-18T08:51:12.321Z,2224.00
2022-12-18T08:52:12.574Z,2284.00
2022-12-18T08:53:12.798Z,2380.00
2022-12-18T08:54:13.037Z,2480.00
2022-12-18T08:55:13.240Z,2480.00
2022-12-18T08:56:13.462Z,2396.00
2022-12-18T08:57:13.731Z,2300.00
2022-12-18T08:58:14.081Z,2260.00
2022-12-18T08:59:19.447Z,2272.00
2022-12-18T09:00:15.716Z,2280.00
2022-12-18T09:01:15.252Z,2260.00
2022-12-18T09:02:15.554Z,2276.00
2022-12-18T09:03:15.657Z,2336.00
2022-12-18T09:04:15.878Z,2380.00
2022-12-18T09:05:16.292Z,2448.00
2022-12-18T09:06:16.461Z,2492.00
2022-12-18T09:07:16.725Z,2520.00
2022-12-18T09:08:17.030Z,2528.00
2022-12-18T09:09:17.262Z,2512.00
2022-12-18T09:10:17.505Z,2472.00
2022-12-18T09:11:17.761Z,2448.00
2022-12-18T09:12:18.009Z,2432.00
2022-12-18T09:13:18.345Z,2412.00
2022-12-18T09:14:18.676Z,2396.00
2022-12-18T09:15:19.024Z,2388.00
2022-12-18T09:16:19.260Z,2380.00
2022-12-18T09:17:19.641Z,2352.00
2022-12-18T09:18:19.847Z,2320.00
2022-12-18T09:19:20.069Z,2308.00
2022-12-18T09:20:20.346Z,2280.00
2022-12-18T09:21:20.665Z,2244.00
2022-12-18T09:22:20.922Z,2200.00
2022-12-18T09:23:21.159Z,2160.00
2022-12-18T09:24:21.351Z,2112.00
2022-12-18T09:25:21.605Z,2124.00
2022-12-18T09:26:21.889Z,2144.00
2022-12-18T09:27:22.140Z,2176.00
2022-12-18T09:28:22.430Z,2272.00
2022-12-18T09:29:22.656Z,2404.00
2022-12-18T09:30:22.930Z,2484.00
2022-12-18T09:31:23.312Z,2532.00
2022-12-18T09:32:23.570Z,2540.00
2022-12-18T09:33:23.788Z,2620.00
2022-12-18T09:34:24.047Z,2636.00
2022-12-18T09:35:24.307Z,2676.00
2022-12-18T09:36:24.527Z,2704.00
2022-12-18T09:37:24.916Z,2744.00
2022-12-18T09:38:25.145Z,2804.00
2022-12-18T09:39:25.370Z,2812.00
2022-12-18T09:40:25.623Z,2796.00
2022-12-18T09:41:25.956Z,2796.00
2022-12-18T09:42:26.304Z,2800.00
2022-12-18T09:43:26.529Z,2728.00
2022-12-18T09:44:26.949Z,2640.00
2022-12-18T09:45:27.165Z,2612.00
2022-12-18T09:46:27.547Z,2636.00
2022-12-18T09:47:27.851Z,2692.00
2022-12-18T09:48:28.103Z,2732.00
2022-12-18T09:49:28.354Z,2812.00
2022-12-18T09:50:28.714Z,2860.00
2022-12-18T09:51:28.926Z,2884.00
2022-12-18T09:52:29.235Z,2844.00
2022-12-18T09:53:29.434Z,2860.00
2022-12-18T09:54:29.678Z,2896.00
2022-12-18T09:55:35.178Z,2908.00
2022-12-18T09:56:31.196Z,2940.00
2022-12-18T09:57:30.493Z,2988.00
2022-12-18T09:58:30.688Z,2988.00
2022-12-18T09:59:31.018Z,2984.00
2022-12-18T10:00:31.235Z,2980.00
2022-12-18T10:01:41.592Z,3000.00
2022-12-18T10:02:32.991Z,3008.00
2022-12-18T10:03:32.148Z,3012.00
2022-12-18T10:04:32.490Z,3036.00
2022-12-18T10:05:32.673Z,3060.00
2022-12-18T10:06:32.935Z,3104.00
2022-12-18T10:07:33.163Z,3152.00
2022-12-18T10:08:33.512Z,3164.00
2022-12-18T10:09:33.858Z,3180.00
2022-12-18T10:10:34.104Z,3184.00
2022-12-18T10:11:34.427Z,3208.00
2022-12-18T10:12:34.707Z,3212.00
2022-12-18T10:13:34.906Z,3236.00
2022-12-18T10:14:35.205Z,3260.00
2022-12-18T10:15:35.509Z,3260.00
2022-12-18T10:16:35.723Z,3268.00
2022-12-18T10:17:36.078Z,3296.00
2022-12-18T10:18:36.284Z,3320.00
2022-12-18T10:19:36.553Z,3364.00
2022-12-18T10:20:36.905Z,3384.00
2022-12-18T10:21:37.162Z,3396.00
2022-12-18T10:22:37.415Z,3416.00
2022-12-18T10:23:40.526Z,3448.00
2022-12-18T10:24:38.885Z,3472.00
2022-12-18T10:25:38.184Z,3508.00
2022-12-18T10:26:38.422Z,3532.00
2022-12-18T10:27:38.644Z,3548.00
2022-12-18T10:28:39.328Z,3524.00
2022-12-18T10:29:39.252Z,3476.00
2022-12-18T10:30:39.501Z,3444.00
2022-12-18T10:31:39.818Z,3484.00
2022-12-18T10:32:40.055Z,3452.00
2022-12-18T10:33:40.264Z,3432.00
2022-12-18T10:34:40.503Z,3476.00
2022-12-18T10:35:40.745Z,3432.00
2022-12-18T10:36:40.999Z,3388.00
2022-12-18T10:37:41.283Z,3384.00
2022-12-18T10:38:41.836Z,3376.00
2022-12-18T10:39:41.726Z,3332.00
2022-12-18T10:40:49.140Z,3332.00
2022-12-18T10:41:42.315Z,3328.00
2022-12-18T10:42:42.587Z,3400.00
2022-12-18T10:43:42.838Z,3384.00
2022-12-18T10:44:43.105Z,3332.00
2022-12-18T10:45:43.542Z,3352.00
2022-12-18T10:46:43.794Z,3308.00
2022-12-18T10:47:44.039Z,3308.00
2022-12-18T10:48:44.451Z,3300.00
2022-12-18T10:49:44.563Z,3328.00
2022-12-18T10:51:10.257Z,3300.00
2022-12-18T10:51:46.090Z,3288.00
2022-12-18T10:52:47.864Z,3292.00
2022-12-18T10:53:45.616Z,3292.00
2022-12-18T10:54:45.904Z,3276.00
2022-12-18T10:55:46.109Z,3236.00
2022-12-18T10:56:46.424Z,3208.00
2022-12-18T10:57:46.608Z,3200.00
2022-12-18T10:58:47.126Z,3220.00
2022-12-18T10:59:47.244Z,3252.00
2022-12-18T11:00:47.485Z,3272.00
2022-12-18T11:01:47.922Z,3276.00
2022-12-18T11:02:48.400Z,3296.00
2022-12-18T11:03:48.559Z,3332.00
2022-12-18T11:04:48.808Z,3344.00
2022-12-18T11:05:49.038Z,3332.00
2022-12-18T11:06:49.279Z,3328.00
2022-12-18T11:07:56.559Z,3348.00
2022-12-18T11:08:49.850Z,3376.00
2022-12-18T11:09:50.114Z,3372.00
2022-12-18T11:10:50.449Z,3376.00
2022-12-18T11:11:50.694Z,3392.00
2022-12-18T11:12:51.001Z,3376.00
2022-12-18T11:13:51.249Z,3352.00
2022-12-18T11:14:51.525Z,3348.00
2022-12-18T11:15:51.773Z,3344.00
2022-12-18T11:17:53.267Z,3312.00
2022-12-18T11:18:52.549Z,3284.00
2022-12-18T11:19:52.870Z,3272.00
2022-12-18T11:20:58.179Z,3252.00
2022-12-18T11:21:54.417Z,3236.00
2022-12-18T11:22:53.689Z,3232.00
2022-12-18T11:23:53.957Z,3216.00
2022-12-18T11:25:22.900Z,3188.00
2022-12-18T11:25:55.442Z,3168.00
2022-12-18T11:26:59.498Z,3164.00
2022-12-18T11:27:56.028Z,3172.00
2022-12-18T11:28:55.316Z,3152.00
2022-12-18T11:29:55.548Z,3112.00
2022-12-18T11:30:55.911Z,3080.00
2022-12-18T11:31:56.135Z,3040.00
2022-12-18T11:32:56.439Z,3016.00
2022-12-18T11:34:26.830Z,2992.00
2022-12-18T11:34:59.218Z,2972.00
2022-12-18T11:35:57.348Z,2972.00
2022-12-18T11:36:57.695Z,2972.00
2022-12-18T11:37:57.916Z,2968.00
2022-12-18T11:38:58.186Z,2964.00
2022-12-18T11:39:58.382Z,2984.00
2022-12-18T11:40:58.638Z,3000.00
2022-12-18T11:41:58.899Z,3012.00
2022-12-18T11:42:59.155Z,3016.00
2022-12-18T11:43:59.396Z,3032.00
2022-12-18T11:44:59.709Z,3040.00
2022-12-18T11:45:59.985Z,3044.00
2022-12-18T11:47:00.269Z,3056.00
2022-12-18T11:48:00.506Z,3072.00
2022-12-18T11:49:00.819Z,3088.00
2022-12-18T11:50:01.069Z,3092.00
2022-12-18T11:51:01.288Z,3092.00
2022-12-18T11:52:01.599Z,3080.00
2022-12-18T11:53:05.814Z,3072.00
2022-12-18T11:54:02.226Z,3064.00
2022-12-18T11:55:02.418Z,3052.00
2022-12-18T11:56:02.714Z,3036.00
2022-12-18T11:57:02.928Z,3012.00
2022-12-18T11:58:03.204Z,2984.00
2022-12-18T11:59:03.547Z,2944.00
2022-12-18T12:00:03.786Z,2908.00
2022-12-18T12:01:04.016Z,2876.00
2022-12-18T12:02:04.481Z,2852.00
2022-12-18T12:03:04.626Z,2848.00
2022-12-18T12:04:04.995Z,2844.00
2022-12-18T12:05:05.282Z,2844.00
2022-12-18T12:06:05.524Z,2836.00
2022-12-18T12:07:05.718Z,2832.00
2022-12-18T12:08:05.976Z,2820.00
2022-12-18T12:09:06.258Z,2796.00
2022-12-18T12:10:06.457Z,2764.00
2022-12-18T12:11:06.735Z,2728.00
2022-12-18T12:12:06.993Z,2696.00
2022-12-18T12:13:07.404Z,2684.00
2022-12-18T12:14:07.637Z,2680.00
2022-12-18T12:15:07.873Z,2676.00
2022-12-18T12:16:08.224Z,2672.00
2022-12-18T12:17:08.517Z,2660.00
2022-12-18T12:18:11.427Z,2640.00
2022-12-18T12:19:09.026Z,2624.00
2022-12-18T12:20:09.260Z,2616.00
2022-12-18T12:21:09.558Z,2604.00
2022-12-18T12:22:09.817Z,2604.00
2022-12-18T12:23:10.164Z,2600.00
2022-12-18T12:24:10.478Z,2604.00
2022-12-18T12:25:10.753Z,2592.00
2022-12-18T12:26:11.088Z,2576.00
2022-12-18T12:27:11.367Z,2552.00
2022-12-18T12:28:11.584Z,2524.00
2022-12-18T12:29:13.428Z,2492.00
2022-12-18T12:30:12.107Z,2468.00
2022-12-18T12:31:12.384Z,2448.00
2022-12-18T12:32:12.615Z,2436.00
2022-12-18T12:33:12.973Z,2420.00
2022-12-18T12:34:13.193Z,2408.00
2022-12-18T12:35:13.454Z,2404.00
2022-12-18T12:36:13.813Z,2396.00
2022-12-18T12:37:14.053Z,2388.00
2022-12-18T12:38:14.263Z,2388.00
2022-12-18T12:39:14.523Z,2384.00
2022-12-18T12:40:48.361Z,2384.00
2022-12-18T12:41:16.147Z,2384.00
2022-12-18T12:42:15.407Z,2392.00
2022-12-18T12:43:15.673Z,2388.00
2022-12-18T12:44:16.013Z,2384.00
2022-12-18T12:45:16.262Z,2372.00
2022-12-18T12:46:16.724Z,2352.00
2022-12-18T12:47:16.952Z,2332.00
2022-12-18T12:48:17.183Z,2312.00
2022-12-18T12:49:17.523Z,2292.00
2022-12-18T12:50:17.794Z,2276.00
2022-12-18T12:51:18.056Z,2264.00
2022-12-18T12:52:18.304Z,2260.00
2022-12-18T12:53:18.527Z,2260.00